Time;durP1;ratioP1;P1;durP2;ratioP2;P2;SDS_P1;SDS_P2;PMS_P1;PMS_P2;Temp;Humidity;BMP_temperature;BMP_pressure;BME280_temperature;BME280_humidity;BME280_pressure;Samples;Min_cycle;Max_cycle;Signal;HPM_P1;HPM_P2
2023/04/25 00:00:46;;;;;;;3.77;3.17;;;;;;;7.63;100.00;99851.13;4995154;28;20226;-71
2023/04/25 00:03:13;;;;;;;4.93;3.47;;;;;;;7.67;100.00;99858.22;5007617;28;20241;-71
2023/04/25 00:05:40;;;;;;;4.77;3.73;;;;;;;7.71;100.00;99851.25;4998102;28;20211;-71
2023/04/25 00:08:07;;;;;;;5.27;3.47;;;;;;;7.75;100.00;99851.31;5005018;28;20679;-71
2023/04/25 00:10:33;;;;;;;5.53;3.50;;;;;;;7.72;100.00;99847.75;4994699;28;20642;-71
2023/04/25 00:13:02;;;;;;;4.80;3.60;;;;;;;7.71;100.00;99853.88;5003406;28;20791;-71
2023/04/25 00:15:31;;;;;;;5.67;3.60;;;;;;;7.77;100.00;99852.22;5006928;28;20204;-72
2023/04/25 00:17:58;;;;;;;6.70;4.00;;;;;;;7.82;100.00;99850.53;5002342;28;20218;-72
2023/04/25 00:20:24;;;;;;;5.03;3.53;;;;;;;7.94;100.00;99857.75;5005955;28;20210;-71
2023/04/25 00:22:53;;;;;;;5.37;3.77;;;;;;;7.92;100.00;99858.59;4994653;28;20254;-72
2023/04/25 00:25:19;;;;;;;4.87;3.53;;;;;;;7.87;100.00;99863.78;4993573;28;20195;-72
2023/04/25 00:27:45;;;;;;;4.80;3.87;;;;;;;7.86;100.00;99862.03;5001951;28;20235;-71
2023/04/25 00:30:12;;;;;;;5.60;4.17;;;;;;;7.80;100.00;99865.44;5005603;28;20309;-71
2023/04/25 00:32:39;;;;;;;8.20;4.43;;;;;;;7.76;100.00;99865.38;5009766;28;20313;-71
2023/04/25 00:35:05;;;;;;;5.63;3.97;;;;;;;7.84;100.00;99869.03;5007142;28;20212;-71
2023/04/25 00:37:32;;;;;;;4.83;3.80;;;;;;;7.83;100.00;99861.97;5007892;28;20348;-72
2023/04/25 00:39:58;;;;;;;6.77;4.47;;;;;;;7.80;100.00;99856.66;5010919;28;20675;-71
2023/04/25 00:42:25;;;;;;;6.67;4.40;;;;;;;7.78;100.00;99861.91;5011184;28;20604;-71
2023/04/25 00:44:52;;;;;;;5.10;4.10;;;;;;;7.78;100.00;99845.19;5007691;28;20234;-72
2023/04/25 00:47:19;;;;;;;7.33;4.70;;;;;;;7.74;100.00;99840.75;5011281;28;20237;-71
2023/04/25 00:49:46;;;;;;;6.17;4.57;;;;;;;7.70;100.00;99842.44;5010201;28;20397;-71
2023/04/25 00:52:12;;;;;;;6.37;4.50;;;;;;;7.71;100.00;99851.25;5008992;28;20201;-71
2023/04/25 00:54:39;;;;;;;6.23;4.57;;;;;;;7.62;100.00;99848.47;5005985;28;20682;-71
2023/04/25 00:57:05;;;;;;;6.17;4.60;;;;;;;7.60;100.00;99844.88;4996783;28;20235;-71
2023/04/25 00:59:33;;;;;;;6.63;4.57;;;;;;;7.65;100.00;99837.97;5010047;28;20741;-71
2023/04/25 01:01:59;;;;;;;5.60;4.60;;;;;;;7.63;100.00;99844.97;5008671;28;20244;-71
2023/04/25 01:04:27;;;;;;;7.50;4.37;;;;;;;7.61;100.00;99844.94;5005340;28;20245;-71
2023/04/25 01:06:54;;;;;;;6.73;4.30;;;;;;;7.58;100.00;99843.97;5010423;28;20199;-72
2023/04/25 01:09:21;;;;;;;6.10;4.53;;;;;;;7.54;100.00;99845.69;5010728;28;20223;-70
2023/04/25 01:11:49;;;;;;;6.40;4.20;;;;;;;7.50;100.00;99831.56;5007812;28;20210;-72
2023/04/25 01:14:15;;;;;;;5.93;4.30;;;;;;;7.56;100.00;99836.06;4995786;28;20281;-70
2023/04/25 01:16:42;;;;;;;7.07;4.93;;;;;;;7.56;100.00;99836.06;5004533;28;20653;-72
2023/04/25 01:19:13;;;;;;;6.47;4.27;;;;;;;7.52;100.00;99839.50;5005424;28;20248;-72
2023/04/25 01:21:39;;;;;;;6.33;4.70;;;;;;;7.53;100.00;99843.91;5009599;28;20277;-71
2023/04/25 01:24:06;;;;;;;5.10;4.27;;;;;;;7.55;100.00;99845.69;5007534;28;20322;-72
2023/04/25 01:26:33;;;;;;;7.27;4.40;;;;;;;7.55;100.00;99847.44;4997177;28;20239;-72
2023/04/25 01:29:00;;;;;;;5.97;4.60;;;;;;;7.59;100.00;99843.13;5003845;28;20208;-71
2023/04/25 01:31:27;;;;;;;6.60;4.77;;;;;;;7.57;100.00;99848.38;5007423;28;20260;-72
2023/04/25 01:33:54;;;;;;;8.47;5.03;;;;;;;7.55;100.00;99843.06;4987067;28;20295;-72
2023/04/25 01:36:21;;;;;;;6.37;4.97;;;;;;;7.54;100.00;99841.28;5005549;28;20202;-70
2023/04/25 01:38:48;;;;;;;8.93;5.73;;;;;;;7.46;100.00;99840.28;5009113;28;20216;-72
2023/04/25 01:41:15;;;;;;;6.30;4.67;;;;;;;7.45;100.00;99837.63;5002203;28;20227;-72
2023/04/25 01:43:41;;;;;;;7.70;4.97;;;;;;;7.41;100.00;99835.81;5008787;28;20704;-72
2023/04/25 01:46:07;;;;;;;8.27;5.00;;;;;;;7.36;100.00;99840.13;5008198;28;20199;-72
2023/04/25 01:48:34;;;;;;;7.03;5.13;;;;;;;7.31;100.00;99837.41;5007164;28;20198;-72
2023/04/25 01:51:00;;;;;;;6.20;5.00;;;;;;;7.37;100.00;99842.78;5009485;28;20240;-72
2023/04/25 01:53:27;;;;;;;7.03;5.40;;;;;;;7.37;100.00;99840.13;5002593;28;20230;-71
2023/04/25 01:55:53;;;;;;;8.07;5.30;;;;;;;7.37;100.00;99848.03;5008912;28;20199;-72
2023/04/25 01:58:20;;;;;;;6.87;5.20;;;;;;;7.44;100.00;99849.03;5002343;28;20306;-72
2023/04/25 02:00:46;;;;;;;8.67;5.07;;;;;;;7.31;100.00;99847.94;4994578;28;20199;-72
2023/04/25 02:03:12;;;;;;;6.33;4.90;;;;;;;7.22;100.00;99842.50;5006601;28;20273;-72
2023/04/25 02:05:40;;;;;;;6.20;4.87;;;;;;;7.19;100.00;99839.78;5004965;28;20287;-72
2023/04/25 02:08:08;;;;;;;8.43;4.80;;;;;;;7.12;100.00;99837.91;5007812;28;20249;-72
2023/04/25 02:10:35;;;;;;;7.00;5.47;;;;;;;7.06;100.00;99836.06;5005538;28;20201;-72
2023/04/25 02:13:01;;;;;;;8.67;5.97;;;;;;;7.11;100.00;99842.28;5008248;28;20216;-72
2023/04/25 02:15:28;;;;;;;8.57;5.40;;;;;;;7.07;100.00;99839.59;5005929;28;20199;-72
2023/04/25 02:17:54;;;;;;;8.07;5.03;;;;;;;6.95;100.00;99839.38;5009854;28;20695;-72
2023/04/25 02:20:22;;;;;;;7.33;5.83;;;;;;;6.87;100.00;99839.22;5007295;28;20200;-72
2023/04/25 02:22:49;;;;;;;7.73;5.40;;;;;;;6.82;100.00;99838.25;5006687;28;20224;-72
2023/04/25 02:25:16;;;;;;;8.03;5.43;;;;;;;6.80;100.00;99837.31;5005153;28;20671;-72
2023/04/25 02:27:43;;;;;;;7.47;5.63;;;;;;;6.76;100.00;99840.75;5006674;28;20216;-73
2023/04/25 02:30:09;;;;;;;7.73;5.63;;;;;;;6.70;100.00;99836.25;5009470;28;20229;-69
2023/04/25 02:32:36;;;;;;;8.27;5.33;;;;;;;6.68;100.00;99843.22;5006067;28;20223;-72
2023/04/25 02:35:06;;;;;;;9.07;6.67;;;;;;;6.82;100.00;99836.50;5005606;28;20733;-72
2023/04/25 02:37:34;;;;;;;10.23;6.57;;;;;;;6.89;100.00;99838.41;4989024;28;20236;-72
2023/04/25 02:40:01;;;;;;;9.90;6.13;;;;;;;6.96;100.00;99835.88;4991652;28;20706;-72
2023/04/25 02:42:28;;;;;;;11.93;6.53;;;;;;;6.96;100.00;99836.75;5007103;28;20219;-72
2023/04/25 02:44:54;;;;;;;10.40;6.83;;;;;;;6.94;100.00;99840.22;4995907;28;20570;-72
2023/04/25 02:47:21;;;;;;;9.27;6.23;;;;;;;6.89;100.00;99838.41;5007319;28;20203;-72
2023/04/25 02:49:48;;;;;;;9.87;6.87;;;;;;;6.94;100.00;99833.22;4999773;28;20206;-72
2023/04/25 02:52:14;;;;;;;12.60;7.17;;;;;;;6.87;100.00;99828.69;5005030;28;20222;-72
2023/04/25 02:54:40;;;;;;;11.13;7.17;;;;;;;6.82;100.00;99833.00;5006360;28;20576;-72
2023/04/25 02:57:07;;;;;;;13.33;8.00;;;;;;;6.84;100.00;99829.53;5008253;28;20269;-72
2023/04/25 02:59:34;;;;;;;12.27;7.50;;;;;;;6.83;100.00;99833.00;5004272;28;20306;-72
2023/04/25 03:02:00;;;;;;;11.70;7.47;;;;;;;7.06;100.00;99840.44;4992373;28;20205;-72
2023/04/25 03:04:27;;;;;;;11.77;7.50;;;;;;;6.91;100.00;99836.69;5004933;28;20281;-72
2023/04/25 03:06:53;;;;;;;12.77;7.40;;;;;;;6.80;100.00;99838.19;5003590;28;20280;-72
2023/04/25 03:09:20;;;;;;;10.87;7.20;;;;;;;6.72;100.00;99839.78;5004494;28;20869;-72
2023/04/25 03:11:46;;;;;;;10.23;7.73;;;;;;;6.94;100.00;99842.84;5003929;28;20199;-72
2023/04/25 03:14:13;;;;;;;11.00;7.20;;;;;;;6.82;100.00;99840.88;5006529;28;20250;-72
2023/04/25 03:16:39;;;;;;;13.90;8.10;;;;;;;6.80;100.00;99839.94;5005988;28;20634;-72
2023/04/25 03:19:06;;;;;;;10.90;7.73;;;;;;;6.86;100.00;99834.81;5007770;28;20673;-72
2023/04/25 03:21:34;;;;;;;18.10;9.63;;;;;;;6.86;100.00;99835.72;4992274;28;20226;-72
2023/04/25 03:24:03;;;;;;;14.90;9.07;;;;;;;6.86;100.00;99835.72;5006428;28;20868;-72
2023/04/25 03:26:29;;;;;;;14.10;7.93;;;;;;;6.87;100.00;99824.31;5004329;28;20199;-72
2023/04/25 03:28:55;;;;;;;14.03;8.40;;;;;;;6.92;100.00;99829.66;4999282;28;20253;-72
2023/04/25 03:31:22;;;;;;;11.60;7.60;;;;;;;6.88;100.00;99827.84;5004698;28;20254;-72
2023/04/25 03:33:48;;;;;;;14.47;8.03;;;;;;;6.76;100.00;99819.69;5004974;28;20315;-72
2023/04/25 03:36:15;;;;;;;13.53;8.43;;;;;;;6.70;100.00;99827.47;5005912;28;20220;-72
2023/04/25 03:38:41;;;;;;;11.67;8.03;;;;;;;6.56;100.00;99827.19;4992110;28;20710;-72
2023/04/25 03:41:08;;;;;;;14.00;7.83;;;;;;;6.32;100.00;99839.81;5005537;28;20206;-72
2023/04/25 03:43:34;;;;;;;15.23;9.10;;;;;;;6.25;100.00;99839.69;5004853;28;20228;-72
2023/04/25 03:46:01;;;;;;;14.90;9.20;;;;;;;6.22;100.00;99839.63;5006585;28;20681;-72
2023/04/25 03:48:27;;;;;;;16.93;10.07;;;;;;;6.23;100.00;99846.66;5000974;28;20653;-72
2023/04/25 03:50:54;;;;;;;19.57;10.33;;;;;;;6.16;100.00;99847.38;5006082;28;20211;-72
2023/04/25 03:53:21;;;;;;;14.03;9.10;;;;;;;6.27;100.00;99847.63;4988658;28;20221;-72
2023/04/25 03:55:47;;;;;;;14.07;8.93;;;;;;;6.33;100.00;99853.00;4993629;28;20199;-72
2023/04/25 03:58:13;;;;;;;14.80;8.63;;;;;;;6.14;100.00;99856.97;5004125;28;20257;-71
2023/04/25 04:00:40;;;;;;;16.07;9.43;;;;;;;6.03;100.00;99858.50;5004615;28;20271;-72
2023/04/25 04:03:06;;;;;;;12.87;8.27;;;;;;;6.28;100.00;99862.53;5006436;28;20248;-72
2023/04/25 04:05:33;;;;;;;15.97;8.47;;;;;;;6.11;100.00;99877.06;5004578;28;20284;-72
2023/04/25 04:07:59;;;;;;;12.37;8.17;;;;;;;6.19;100.00;99876.38;5005924;28;20685;-73
2023/04/25 04:10:26;;;;;;;14.27;7.53;;;;;;;6.06;100.00;99881.34;5007819;28;20727;-73
2023/04/25 04:12:52;;;;;;;12.53;7.50;;;;;;;5.95;100.00;99875.81;4997621;28;20225;-72
2023/04/25 04:15:18;;;;;;;14.53;7.83;;;;;;;5.87;100.00;99874.69;5009450;28;20236;-73
2023/04/25 04:17:46;;;;;;;13.73;7.10;;;;;;;6.14;100.00;99878.00;5009994;28;20195;-72
2023/04/25 04:20:13;;;;;;;12.03;6.73;;;;;;;6.24;100.00;99887.00;5000334;28;20569;-73
2023/04/25 07:42:58;;;;;;;4.87;2.57;;;;;;;11.33;68.42;100017.16;5027662;28;20199;-90
2023/04/25 07:45:25;;;;;;;5.53;2.70;;;;;;;11.76;66.22;100002.28;5014936;28;20203;-95
2023/04/25 07:47:52;;;;;;;6.23;2.63;;;;;;;12.12;66.25;100012.09;5029818;28;20263;-93
2023/04/25 07:50:19;;;;;;;5.93;2.70;;;;;;;11.24;67.11;100002.13;5037243;28;20207;-95
2023/04/25 07:52:46;;;;;;;3.87;2.30;;;;;;;10.85;69.52;100008.09;5038354;28;20244;-94
2023/04/25 07:55:13;;;;;;;5.00;2.20;;;;;;;10.87;68.67;100020.47;5037558;28;20204;-94
2023/04/25 07:57:40;;;;;;;3.10;1.80;;;;;;;10.59;68.92;100022.03;5036581;28;20181;-93
2023/04/25 08:00:09;;;;;;;5.13;2.50;;;;;;;10.79;68.83;100032.75;5037051;28;20286;-94
2023/04/25 08:02:36;;;;;;;5.60;2.43;;;;;;;10.68;69.75;100024.75;5022143;28;20328;-93
2023/04/25 08:05:03;;;;;;;5.17;2.30;;;;;;;10.81;68.88;100035.44;5020935;28;20196;-93
2023/04/25 08:07:30;;;;;;;4.50;2.30;;;;;;;10.80;69.22;100044.22;5016037;28;20200;-93
2023/04/25 08:09:56;;;;;;;3.53;2.07;;;;;;;11.13;67.95;100032.97;5014984;28;20228;-93
2023/04/25 08:12:23;;;;;;;3.07;2.00;;;;;;;10.87;67.68;100038.13;5019941;28;20617;-92
2023/04/25 08:14:49;;;;;;;3.70;2.30;;;;;;;10.95;69.11;100044.34;5013199;28;20202;-93
2023/04/25 08:17:16;;;;;;;5.67;2.10;;;;;;;11.24;67.98;100040.09;5015036;28;20568;-93
2023/04/25 08:19:43;;;;;;;3.10;1.90;;;;;;;11.61;64.84;100038.50;5015133;28;20225;-94
2023/04/25 08:22:09;;;;;;;2.73;2.07;;;;;;;11.71;65.14;100046.47;5014275;28;20242;-93
2023/04/25 08:24:36;;;;;;;4.90;2.03;;;;;;;11.79;64.28;100050.06;5015264;28;20219;-93
2023/04/25 08:27:06;;;;;;;4.90;2.00;;;;;;;12.10;61.86;100053.69;5020255;28;20608;-94
2023/04/25 08:29:33;;;;;;;4.17;1.83;;;;;;;12.31;60.25;100061.69;5021061;28;20325;-93
2023/04/25 08:32:00;;;;;;;5.40;2.23;;;;;;;11.97;58.37;100063.38;5024942;28;20215;-93
2023/04/25 08:34:27;;;;;;;3.40;1.83;;;;;;;11.82;58.28;100066.00;5026209;28;20203;-93
2023/04/25 08:36:53;;;;;;;6.33;2.17;;;;;;;11.74;59.10;100073.91;5024749;28;20176;-93
2023/04/25 08:39:20;;;;;;;4.27;2.33;;;;;;;11.27;60.82;100085.19;5037300;28;20261;-92
2023/04/25 08:41:47;;;;;;;5.43;2.70;;;;;;;11.33;61.68;100081.69;5010564;28;20704;-93
2023/04/25 08:44:14;;;;;;;3.90;2.50;;;;;;;11.57;60.00;100086.19;5012629;28;20274;-93
2023/04/25 08:46:42;;;;;;;6.70;2.70;;;;;;;11.56;60.11;100082.66;5017396;28;20195;-93
2023/04/25 08:49:09;;;;;;;6.83;2.83;;;;;;;11.45;59.59;100091.44;5012378;28;20222;-93
2023/04/25 08:51:42;;;;;;;5.47;2.90;;;;;;;11.63;59.67;100099.50;5012570;28;20208;-93
2023/04/25 08:54:12;;;;;;;4.80;2.90;;;;;;;11.71;59.92;100089.81;5017259;28;20649;-93
2023/04/25 08:56:44;;;;;;;4.37;3.00;;;;;;;11.90;58.59;100096.09;5017684;28;20199;-93
2023/04/25 08:59:12;;;;;;;6.07;2.90;;;;;;;11.85;60.24;100097.84;5016491;28;20601;-93
2023/04/25 09:01:39;;;;;;;6.30;3.10;;;;;;;12.16;60.36;100093.53;5012115;28;20218;-93
2023/04/25 09:04:06;;;;;;;5.77;2.97;;;;;;;12.12;60.60;100107.66;5014204;28;20210;-92
2023/04/25 09:06:34;;;;;;;6.03;2.80;;;;;;;11.77;60.18;100102.22;5013138;28;20657;-94
2023/04/25 09:09:06;;;;;;;6.57;2.60;;;;;;;11.74;59.17;100103.09;5016895;28;20245;-94
2023/04/25 09:11:35;;;;;;;5.40;2.83;;;;;;;11.84;59.81;100110.22;5017528;28;20202;-93
2023/04/25 09:14:17;;;;;;;4.30;2.97;;;;;;;11.74;59.84;100115.47;5018132;28;20258;-92
2023/04/25 09:16:56;;;;;;;6.97;3.23;;;;;;;12.03;60.26;100121.81;5024517;28;20202;-93
2023/04/25 09:19:23;;;;;;;5.20;3.30;;;;;;;12.01;59.83;100120.91;5021814;28;20258;-93
2023/04/25 09:22:08;;;;;;;6.03;3.53;;;;;;;12.33;58.80;100128.94;5020844;28;20204;-93
2023/04/25 09:24:40;;;;;;;4.87;3.23;;;;;;;12.47;57.51;100124.56;5019985;28;20662;-93
2023/04/25 09:27:11;;;;;;;6.10;3.50;;;;;;;12.86;54.68;100129.03;5020461;28;20211;-93
2023/04/25 09:29:40;;;;;;;5.57;3.30;;;;;;;12.71;54.16;100118.38;5023055;28;20346;-92
2023/04/25 09:32:22;;;;;;;9.37;4.00;;;;;;;13.00;53.25;100133.44;5019955;28;20749;-93
2023/04/25 09:34:51;;;;;;;7.13;3.83;;;;;;;12.08;55.80;100130.66;5018169;28;20202;-94
2023/04/25 09:37:20;;;;;;;8.43;4.20;;;;;;;12.26;56.53;100144.88;5019239;28;20249;-93
2023/04/25 09:40:00;;;;;;;8.10;3.70;;;;;;;12.48;53.86;100136.97;5013780;28;20226;-93
2023/04/25 09:42:28;;;;;;;9.30;3.93;;;;;;;12.51;53.46;100136.97;5018151;28;20311;-93
2023/04/25 09:44:56;;;;;;;8.27;4.00;;;;;;;12.04;55.33;100151.88;5015096;28;20203;-92
2023/04/25 09:47:24;;;;;;;7.73;4.20;;;;;;;11.59;55.82;100161.34;5017467;28;20225;-91
2023/04/25 09:49:54;;;;;;;6.60;4.00;;;;;;;11.27;58.09;100161.19;5026886;28;20242;-93
2023/04/25 09:52:23;;;;;;;7.10;4.33;;;;;;;11.22;58.83;100163.81;5027029;28;20191;-93
2023/04/25 09:54:52;;;;;;;8.10;4.07;;;;;;;11.66;58.48;100164.94;5027731;28;20204;-92
2023/04/25 09:57:27;;;;;;;11.17;5.30;;;;;;;11.47;57.82;100171.91;5030421;28;20186;-93
2023/04/25 09:59:54;;;;;;;9.00;5.20;;;;;;;11.05;59.52;100162.78;5025814;28;20203;-92
2023/04/25 10:02:23;;;;;;;6.63;4.20;;;;;;;11.75;58.57;100167.66;5030340;28;20203;-93
2023/04/25 10:04:52;;;;;;;6.17;4.37;;;;;;;11.82;57.92;100162.41;5014015;28;20262;-94
2023/04/25 10:07:21;;;;;;;11.83;4.37;;;;;;;12.36;56.48;100176.75;5013372;28;20202;-94
2023/04/25 10:09:51;;;;;;;11.60;4.53;;;;;;;12.65;53.44;100167.97;5020508;28;20270;-92
2023/04/25 10:12:18;;;;;;;7.13;4.20;;;;;;;12.41;52.56;100168.81;5029885;28;20562;-93
2023/04/25 10:14:46;;;;;;;8.77;4.60;;;;;;;12.24;54.45;100177.59;5023556;28;20200;-93
2023/04/25 10:17:13;;;;;;;6.27;4.27;;;;;;;12.28;55.09;100180.28;5018190;28;20194;-94
2023/04/25 10:19:40;;;;;;;8.17;4.40;;;;;;;12.07;57.01;100171.38;5022496;28;20234;-93
2023/04/25 10:22:36;;;;;;;7.30;4.20;;;;;;;11.64;55.86;100183.50;5020399;28;20210;-94
2023/04/25 10:25:04;;;;;;;7.77;4.23;;;;;;;11.51;56.55;100171.91;5009390;28;20200;-94
2023/04/25 10:27:31;;;;;;;7.93;4.27;;;;;;;11.87;56.32;100186.31;5023269;28;20195;-94
2023/04/25 10:30:04;;;;;;;5.57;3.73;;;;;;;11.97;54.69;100195.19;5023343;28;20317;-94
2023/04/25 10:32:34;;;;;;;6.73;4.23;;;;;;;11.65;54.28;100171.13;5018365;28;20582;-94
2023/04/25 10:35:31;;;;;;;8.63;4.20;;;;;;;11.40;56.44;100184.22;5030914;28;20209;-94
2023/04/25 10:38:12;;;;;;;8.60;4.13;;;;;;;11.33;56.20;100190.38;5005064;23;20243;-72
2023/04/25 10:40:39;;;;;;;7.37;4.00;;;;;;;11.23;57.05;100184.13;4999437;28;20552;-75
2023/04/25 10:43:33;;;;;;;7.07;3.70;;;;;;;11.09;57.29;100188.41;4984977;28;20227;-75
2023/04/25 10:46:03;;;;;;;8.97;4.00;;;;;;;10.77;57.38;100184.59;5000574;28;20277;-75
2023/04/25 10:48:31;;;;;;;7.30;4.00;;;;;;;10.95;57.05;100188.31;4998402;28;20207;-75
2023/04/25 10:51:09;;;;;;;6.20;4.30;;;;;;;11.24;56.79;100190.31;5000555;28;20683;-75
2023/04/25 10:53:35;;;;;;;7.27;3.40;;;;;;;11.51;56.01;100190.47;5000975;28;20232;-75
2023/04/25 10:56:19;;;;;;;8.03;3.83;;;;;;;11.87;55.26;100195.16;4999518;28;20200;-76
2023/04/25 10:58:46;;;;;;;6.33;3.60;;;;;;;12.28;53.44;100191.78;4999176;28;20468;-74
2023/04/25 11:01:25;;;;;;;10.53;3.30;;;;;;;12.24;52.49;100190.88;4998436;28;20192;-75
2023/04/25 11:03:57;;;;;;;6.63;3.67;;;;;;;12.39;52.66;100192.69;5003803;28;20279;-73
2023/04/25 11:06:58;;;;;;;8.97;3.50;;;;;;;12.58;51.98;100203.38;4984790;28;20201;-73
2023/04/25 11:09:34;;;;;;;8.87;3.77;;;;;;;11.95;52.52;100203.13;4999985;28;20207;-74
2023/04/25 11:12:00;;;;;;;6.37;3.50;;;;;;;11.48;53.14;100214.34;4985796;28;20290;-74
2023/04/25 11:14:27;;;;;;;6.07;3.70;;;;;;;11.62;54.20;100211.78;4999314;28;20263;-75
2023/04/25 11:16:55;;;;;;;9.27;3.67;;;;;;;11.71;53.34;100209.19;4987994;28;20203;-75
2023/04/25 11:19:26;;;;;;;9.33;3.37;;;;;;;11.71;54.04;100210.97;4999967;28;20228;-75
2023/04/25 11:21:56;;;;;;;7.93;3.80;;;;;;;11.76;53.54;100227.78;5000180;28;20203;-75
2023/04/25 11:24:34;;;;;;;5.97;3.50;;;;;;;11.67;55.14;100222.44;4994121;28;20216;-74
2023/04/25 11:27:05;;;;;;;8.77;3.43;;;;;;;11.87;53.11;100224.34;5000357;28;20196;-75
2023/04/25 11:29:34;;;;;;;9.73;3.80;;;;;;;11.89;53.91;100221.69;4997797;28;20197;-74
2023/04/25 11:32:01;;;;;;;8.07;3.70;;;;;;;11.58;53.99;100229.41;4998124;28;20229;-74
2023/04/25 11:34:32;;;;;;;7.47;3.30;;;;;;;11.25;54.05;100227.44;4999783;28;20236;-73
2023/04/25 11:37:00;;;;;;;7.47;3.20;;;;;;;11.23;53.91;100229.19;4997985;28;20212;-75
2023/04/25 11:39:27;;;;;;;6.40;3.20;;;;;;;11.12;53.93;100240.56;4995662;28;20227;-73
2023/04/25 11:41:55;;;;;;;8.83;3.67;;;;;;;11.24;54.23;100232.72;4996885;28;20650;-73
2023/04/25 11:44:22;;;;;;;11.27;4.10;;;;;;;11.23;54.93;100236.25;4995537;28;20236;-74
2023/04/25 11:46:48;;;;;;;8.23;3.40;;;;;;;11.21;54.74;100235.34;5003736;28;20231;-73
2023/04/25 11:49:15;;;;;;;6.53;3.40;;;;;;;11.14;55.06;100234.41;5000612;28;20334;-74
2023/04/25 11:51:43;;;;;;;7.67;3.60;;;;;;;11.13;54.78;100234.38;4999933;28;20199;-73
2023/04/25 11:54:11;;;;;;;11.67;4.23;;;;;;;11.14;54.59;100233.50;5001975;28;20218;-72
2023/04/25 11:56:42;;;;;;;9.00;4.00;;;;;;;11.07;55.40;100234.34;4984101;28;20650;-73
2023/04/25 11:59:09;;;;;;;9.27;3.33;;;;;;;11.01;55.52;100243.13;4998248;28;20203;-73
2023/04/25 12:01:40;;;;;;;8.77;3.97;;;;;;;11.15;53.74;100238.81;5003641;28;20210;-72
2023/04/25 12:04:24;;;;;;;8.43;3.20;;;;;;;11.54;51.89;100240.91;5000581;28;20236;-73
2023/04/25 12:06:56;;;;;;;6.43;3.20;;;;;;;12.00;51.69;100235.00;4999872;28;20199;-71
2023/04/25 12:09:33;;;;;;;8.40;3.47;;;;;;;12.39;50.06;100232.53;4994541;28;20206;-71
2023/04/25 12:12:03;;;;;;;7.53;3.40;;;;;;;12.47;48.69;100237.88;4984705;28;20222;-71
2023/04/25 12:14:34;;;;;;;6.50;3.10;;;;;;;12.88;48.77;100226.47;5000375;28;20699;-71
2023/04/25 12:17:03;;;;;;;7.93;3.40;;;;;;;13.21;46.66;100228.28;5002260;28;20211;-71
2023/04/25 12:19:34;;;;;;;5.43;3.20;;;;;;;13.45;45.95;100214.97;4999808;28;20227;-73
2023/04/25 12:22:02;;;;;;;6.57;3.00;;;;;;;13.49;45.26;100222.06;5004837;28;20813;-70
2023/04/25 12:24:29;;;;;;;5.63;2.80;;;;;;;12.80;45.40;100214.03;5006473;28;20680;-74
2023/04/25 12:27:02;;;;;;;4.77;2.80;;;;;;;13.81;44.68;100227.34;5003242;28;20346;-74
2023/04/25 12:29:31;;;;;;;8.30;3.10;;;;;;;14.50;41.94;100224.47;5008080;28;20231;-75
2023/04/25 12:32:14;;;;;;;6.90;3.20;;;;;;;14.52;42.77;100225.34;5000644;28;20200;-74
2023/04/25 12:34:40;;;;;;;9.30;4.07;;;;;;;14.95;41.96;100226.84;5005707;28;20479;-79
2023/04/25 12:37:07;;;;;;;3.73;2.70;;;;;;;14.47;41.52;100237.81;5005177;28;20736;-81
2023/04/25 12:39:33;;;;;;;6.27;3.07;;;;;;;13.65;42.67;100241.56;5006371;28;20224;-80
2023/04/25 12:42:00;;;;;;;6.17;2.70;;;;;;;13.23;44.56;100239.84;5007636;28;20288;-81
2023/04/25 12:44:27;;;;;;;7.57;3.03;;;;;;;13.14;44.54;100246.84;5004623;28;21997;-81
2023/04/25 12:46:55;;;;;;;5.53;2.97;;;;;;;12.89;46.00;100253.06;5004758;28;20230;-74
2023/04/25 12:49:22;;;;;;;5.43;2.77;;;;;;;12.32;47.47;100256.41;5003902;28;20591;-73
2023/04/25 12:51:49;;;;;;;7.87;2.80;;;;;;;12.18;47.87;100256.34;5006185;28;20650;-71
2023/04/25 12:54:15;;;;;;;5.33;2.67;;;;;;;12.44;48.63;100257.38;5003912;28;20597;-71
2023/04/25 12:56:42;;;;;;;8.07;2.90;;;;;;;12.37;47.33;100263.50;5004820;28;20266;-71
2023/04/25 12:59:09;;;;;;;8.30;2.90;;;;;;;12.39;47.21;100259.09;5004795;28;20201;-73
2023/04/25 13:01:35;;;;;;;6.10;2.80;;;;;;;12.77;47.67;100256.53;5008303;28;20227;-70
2023/04/25 13:04:02;;;;;;;8.77;3.00;;;;;;;13.00;46.29;100269.91;5002332;28;20748;-71
2023/04/25 13:06:31;;;;;;;4.23;2.57;;;;;;;13.08;45.05;100246.84;5004600;28;20221;-71
2023/04/25 13:08:58;;;;;;;7.20;3.10;;;;;;;12.98;46.57;100263.69;5005086;28;20198;-71
2023/04/25 13:11:24;;;;;;;6.17;2.93;;;;;;;13.14;44.59;100253.94;5007815;28;20292;-71
2023/04/25 13:13:50;;;;;;;7.67;2.70;;;;;;;13.41;44.70;100253.13;5005443;28;20226;-72
2023/04/25 13:16:20;;;;;;;5.80;2.87;;;;;;;14.14;43.40;100268.97;5003904;28;20198;-72
2023/04/25 13:18:46;;;;;;;8.37;2.90;;;;;;;14.25;42.44;100263.59;5004001;28;20207;-72
2023/04/25 13:21:13;;;;;;;6.73;2.60;;;;;;;14.43;41.16;100254.69;5004427;28;21247;-77
2023/04/25 13:23:41;;;;;;;4.23;2.37;;;;;;;13.80;42.60;100261.06;5006054;28;20227;-79
2023/04/25 13:26:08;;;;;;;7.10;2.50;;;;;;;13.11;43.43;100251.28;5007912;28;20200;-76
2023/04/25 13:28:34;;;;;;;3.50;2.30;;;;;;;13.04;44.61;100258.38;4990999;28;20700;-75
2023/04/25 13:31:00;;;;;;;7.33;2.67;;;;;;;13.13;44.00;100261.03;4993179;28;20198;-74
2023/04/25 13:33:27;;;;;;;4.87;2.70;;;;;;;13.37;43.67;100261.97;5007473;28;20718;-73
2023/04/25 13:35:55;;;;;;;6.50;2.73;;;;;;;13.23;42.32;100263.78;5004979;28;20279;-75
2023/04/25 13:38:22;;;;;;;8.57;2.50;;;;;;;13.34;42.83;100262.00;5006451;28;20211;-75
2023/04/25 13:40:51;;;;;;;5.97;2.63;;;;;;;13.79;42.83;100264.59;5006541;28;20691;-78
2023/04/25 13:43:22;;;;;;;8.53;2.80;;;;;;;13.65;43.56;100268.19;4987454;28;20941;-75
2023/04/25 13:45:50;;;;;;;5.90;2.50;;;;;;;13.42;43.20;100274.41;5001366;28;20219;-78
2023/04/25 13:48:17;;;;;;;5.33;2.57;;;;;;;13.05;43.00;100276.09;5002388;28;20643;-73
2023/04/25 13:50:44;;;;;;;5.87;2.90;;;;;;;13.06;43.43;100271.66;4990606;28;20202;-71
2023/04/25 13:53:11;;;;;;;3.87;2.50;;;;;;;13.01;43.96;100270.78;5010087;28;20225;-75
2023/04/25 13:55:38;;;;;;;8.50;2.60;;;;;;;12.45;43.85;100277.72;5007401;28;20732;-70
2023/04/25 13:58:07;;;;;;;4.23;2.50;;;;;;;12.29;45.71;100288.25;5009315;28;20203;-70
2023/04/25 14:00:38;;;;;;;4.37;2.47;;;;;;;11.92;45.91;100302.22;4988250;28;20223;-73
2023/04/25 14:03:06;;;;;;;8.13;2.70;;;;;;;11.61;46.04;100290.47;4986372;28;20207;-74
2023/04/25 14:05:38;;;;;;;6.43;2.83;;;;;;;11.55;46.12;100290.41;4992995;28;20204;-72
2023/04/25 14:08:09;;;;;;;7.23;2.70;;;;;;;11.67;46.64;100294.94;5004746;28;20683;-69
2023/04/25 14:10:36;;;;;;;5.47;2.73;;;;;;;11.64;46.22;100299.34;5006490;28;20668;-69
2023/04/25 14:13:03;;;;;;;8.17;2.83;;;;;;;11.89;46.24;100288.03;5000673;28;20203;-69
2023/04/25 14:15:33;;;;;;;7.07;2.43;;;;;;;12.06;45.28;100289.03;5001248;28;20231;-70
2023/04/25 14:18:00;;;;;;;9.13;2.53;;;;;;;12.26;44.31;100293.56;5000851;28;20204;-69
2023/04/25 14:20:28;;;;;;;6.63;2.80;;;;;;;12.49;44.19;100299.88;4998027;28;20662;-69
2023/04/25 14:22:55;;;;;;;8.03;2.73;;;;;;;12.48;44.25;100293.66;4999524;28;20196;-70
2023/04/25 14:25:22;;;;;;;5.37;2.80;;;;;;;12.23;44.71;100290.00;5001040;28;20203;-70
2023/04/25 14:27:52;;;;;;;7.10;2.97;;;;;;;12.24;44.74;100296.22;5003939;28;20204;-70
2023/04/25 14:30:20;;;;;;;5.93;2.77;;;;;;;12.12;44.72;100288.19;5006312;28;20188;-70
2023/04/25 14:32:49;;;;;;;3.80;2.57;;;;;;;12.18;45.71;100301.50;5002470;28;20213;-70
2023/04/25 14:35:15;;;;;;;4.67;2.50;;;;;;;11.91;44.83;100288.94;5004502;28;21579;-70
2023/04/25 14:37:42;;;;;;;6.57;3.03;;;;;;;11.63;46.96;100294.91;5002237;28;20212;-69
2023/04/25 14:40:10;;;;;;;4.63;2.27;;;;;;;11.25;45.46;100306.09;5009067;28;20726;-69
2023/04/25 14:42:37;;;;;;;4.00;2.67;;;;;;;11.31;46.34;100316.75;5007204;28;21764;-69
2023/04/25 14:45:06;;;;;;;5.10;2.73;;;;;;;11.38;45.74;100310.59;5005340;28;20269;-70
2023/04/25 14:47:33;;;;;;;8.23;3.10;;;;;;;11.28;45.58;100312.28;5004324;28;20203;-69
2023/04/25 14:49:59;;;;;;;3.47;2.37;;;;;;;11.13;45.76;100311.25;5007109;28;20210;-69
2023/04/25 14:52:26;;;;;;;8.67;2.70;;;;;;;11.20;46.32;100307.78;5007941;28;20247;-69